createdAt,value
2023-05-24T00:01:50.465Z,2.60
2023-05-24T00:04:35.942Z,3.33
2023-05-24T00:07:31.044Z,2.97
2023-05-24T00:10:26.420Z,1.95
2023-05-24T00:13:17.258Z,2.80
2023-05-24T00:16:06.261Z,2.60
2023-05-24T00:18:52.296Z,2.80
2023-05-24T00:21:43.463Z,3.05
2023-05-24T00:24:29.233Z,3.00
2023-05-24T00:27:15.533Z,2.72
2023-05-24T00:30:03.306Z,2.92
2023-05-24T00:32:50.126Z,2.75
2023-05-24T00:36:12.337Z,2.80
2023-05-24T00:38:59.528Z,2.80
2023-05-24T00:41:45.017Z,2.70
2023-05-24T00:44:38.722Z,2.20
2023-05-24T00:47:24.843Z,2.20
2023-05-24T00:50:17.196Z,2.45
2023-05-24T00:53:03.712Z,2.17
2023-05-24T00:55:54.817Z,2.65
2023-05-24T00:58:41.274Z,2.10
2023-05-24T01:01:26.708Z,2.67
2023-05-24T01:04:19.634Z,2.10
2023-05-24T01:08:03.663Z,2.30
2023-05-24T01:10:58.880Z,1.80
2023-05-24T01:14:25.636Z,1.83
2023-05-24T01:17:27.313Z,1.80
2023-05-24T01:20:15.054Z,1.88
2023-05-24T01:23:05.910Z,2.55
2023-05-24T01:26:24.691Z,2.22
2023-05-24T01:29:11.091Z,2.38
2023-05-24T01:31:57.539Z,2.25
2023-05-24T01:34:43.173Z,1.90
2023-05-24T01:37:28.551Z,1.98
2023-05-24T01:40:14.538Z,1.80
2023-05-24T01:43:12.313Z,2.10
2023-05-24T01:46:25.582Z,2.08
2023-05-24T01:49:20.668Z,1.85
2023-05-24T01:52:12.903Z,1.75
2023-05-24T01:55:00.852Z,2.17
2023-05-24T01:57:48.804Z,2.13
2023-05-24T02:00:35.086Z,2.00
2023-05-24T02:03:21.277Z,2.35
2023-05-24T02:06:08.196Z,2.40
2023-05-24T02:08:53.644Z,2.17
2023-05-24T02:11:39.022Z,2.00
2023-05-24T02:14:24.953Z,2.58
2023-05-24T02:17:10.188Z,2.17
2023-05-24T02:19:55.939Z,2.60
2023-05-24T02:22:41.613Z,2.15
2023-05-24T02:25:27.269Z,2.35
2023-05-24T02:28:12.722Z,2.03
2023-05-24T02:30:58.741Z,2.45
2023-05-24T02:33:44.268Z,2.33
2023-05-24T02:36:29.599Z,2.83
2023-05-24T02:39:15.204Z,2.50
2023-05-24T02:42:00.637Z,2.80
2023-05-24T02:44:49.586Z,2.60
2023-05-24T02:47:35.228Z,2.85
2023-05-24T02:50:20.568Z,2.83
2023-05-24T02:53:06.888Z,2.30
2023-05-24T02:55:52.680Z,2.42
2023-05-24T02:58:40.531Z,2.42
2023-05-24T03:01:26.236Z,3.03
2023-05-24T03:04:11.877Z,2.50
2023-05-24T03:06:57.375Z,2.35
2023-05-24T03:09:43.141Z,2.28
2023-05-24T03:12:28.637Z,2.15
2023-05-24T03:15:14.052Z,2.38
2023-05-24T03:17:59.548Z,2.55
2023-05-24T03:20:45.372Z,2.78
2023-05-24T03:23:31.437Z,2.67
2023-05-24T03:26:18.708Z,2.90
2023-05-24T03:29:04.235Z,2.92
2023-05-24T03:31:49.857Z,2.80
2023-05-24T03:34:35.333Z,2.20
2023-05-24T03:37:20.726Z,2.15
2023-05-24T03:40:06.896Z,2.17
2023-05-24T03:42:52.186Z,2.60
2023-05-24T03:45:40.099Z,3.10
2023-05-24T03:48:25.544Z,2.78
2023-05-24T03:51:11.138Z,3.33
2023-05-24T03:53:59.610Z,3.10
2023-05-24T03:56:45.026Z,3.10
2023-05-24T03:59:30.969Z,2.28
2023-05-24T04:02:16.436Z,2.53
2023-05-24T04:05:01.865Z,3.65
2023-05-24T04:07:47.357Z,3.72
2023-05-24T04:10:32.923Z,4.13
2023-05-24T04:13:18.491Z,3.05
2023-05-24T04:16:04.344Z,2.97
2023-05-24T04:18:51.315Z,3.28
2023-05-24T04:21:38.051Z,2.80
2023-05-24T04:24:23.528Z,3.40
2023-05-24T04:27:09.936Z,4.18
2023-05-24T04:29:55.290Z,3.25
2023-05-24T04:32:40.892Z,4.25
2023-05-24T04:35:26.382Z,4.05
2023-05-24T04:38:12.731Z,4.32
2023-05-24T04:41:01.775Z,4.20
2023-05-24T04:43:47.155Z,4.15
2023-05-24T04:46:35.466Z,4.13
2023-05-24T04:49:22.945Z,3.85
2023-05-24T04:52:08.896Z,3.80
2023-05-24T04:54:55.783Z,4.43
2023-05-24T04:57:44.281Z,4.32
2023-05-24T05:00:30.360Z,4.40
2023-05-24T05:03:16.500Z,4.65
2023-05-24T05:06:02.632Z,5.65
2023-05-24T05:08:48.748Z,4.57
2023-05-24T05:11:34.663Z,4.90
2023-05-24T05:14:20.660Z,5.75
2023-05-24T05:17:06.729Z,4.80
2023-05-24T05:19:52.797Z,5.13
2023-05-24T05:22:38.559Z,5.72
2023-05-24T05:25:24.283Z,4.80
2023-05-24T05:28:09.546Z,5.13
2023-05-24T05:30:56.873Z,5.22
2023-05-24T05:33:42.552Z,4.82
2023-05-24T05:36:27.982Z,5.93
2023-05-24T05:39:14.091Z,5.55
2023-05-24T05:41:59.839Z,4.78
2023-05-24T05:44:46.382Z,5.20
2023-05-24T05:47:31.655Z,6.18
2023-05-24T05:50:17.120Z,5.60
2023-05-24T05:53:02.672Z,5.40
2023-05-24T05:55:48.295Z,5.65
2023-05-24T05:58:33.738Z,5.53
2023-05-24T06:01:20.033Z,5.47
2023-05-24T06:04:05.930Z,5.20
2023-05-24T06:06:52.258Z,6.88
2023-05-24T06:09:38.108Z,6.68
2023-05-24T06:12:23.580Z,6.47
2023-05-24T06:15:09.588Z,6.32
2023-05-24T06:17:55.324Z,6.70
2023-05-24T06:20:40.988Z,5.53
2023-05-24T06:23:27.002Z,6.18
2023-05-24T06:26:12.632Z,5.80
2023-05-24T06:28:58.166Z,7.07
2023-05-24T06:31:43.927Z,6.32
2023-05-24T06:34:29.931Z,6.43
2023-05-24T06:37:15.890Z,5.50
2023-05-24T06:40:01.557Z,5.60
2023-05-24T06:42:47.820Z,6.45
2023-05-24T06:45:34.372Z,7.10
2023-05-24T06:48:20.068Z,6.10
2023-05-24T06:51:06.246Z,7.22
2023-05-24T06:53:52.434Z,5.78
2023-05-24T06:56:38.390Z,5.18
2023-05-24T06:59:23.893Z,6.25
2023-05-24T07:02:09.454Z,5.00
2023-05-24T07:04:55.143Z,6.40
2023-05-24T07:07:42.350Z,5.72
2023-05-24T07:10:28.246Z,6.55
2023-05-24T07:13:14.201Z,5.70
2023-05-24T07:16:00.319Z,5.25
2023-05-24T07:18:46.428Z,6.05
2023-05-24T07:21:32.105Z,7.07
2023-05-24T07:24:17.528Z,6.15
2023-05-24T07:27:03.176Z,6.15
2023-05-24T07:29:50.152Z,5.35
2023-05-24T07:32:35.921Z,4.85
2023-05-24T07:35:22.763Z,4.53
2023-05-24T07:38:08.524Z,5.18
2023-05-24T07:40:54.274Z,5.40
2023-05-24T07:43:40.028Z,5.40
2023-05-24T07:46:25.570Z,4.60
2023-05-24T07:49:11.541Z,5.93
2023-05-24T07:52:00.223Z,5.10
2023-05-24T07:54:46.575Z,5.28
2023-05-24T07:57:32.917Z,4.65
2023-05-24T08:00:20.143Z,5.07
2023-05-24T08:03:06.722Z,4.93
2023-05-24T08:05:52.450Z,4.82
2023-05-24T08:08:38.802Z,4.60
2023-05-24T08:11:24.513Z,5.65
2023-05-24T08:14:09.939Z,4.82
2023-05-24T08:16:55.618Z,5.20
2023-05-24T08:19:41.359Z,5.45
2023-05-24T08:22:26.964Z,4.88
2023-05-24T08:25:12.267Z,4.38
2023-05-24T08:27:57.896Z,4.10
2023-05-24T08:30:43.652Z,4.93
2023-05-24T08:33:29.823Z,4.93
2023-05-24T08:36:15.255Z,5.22
2023-05-24T08:39:00.782Z,5.35
2023-05-24T08:41:57.426Z,5.28
2023-05-24T08:45:03.926Z,5.07
2023-05-24T08:47:51.841Z,4.15
2023-05-24T08:50:37.784Z,5.90
2023-05-24T08:53:24.189Z,5.15
2023-05-24T08:56:10.473Z,4.13
2023-05-24T08:58:56.082Z,5.50
2023-05-24T09:01:42.038Z,4.82
2023-05-24T09:04:29.133Z,5.47
2023-05-24T09:07:17.757Z,5.78
2023-05-24T09:10:08.181Z,5.38
2023-05-24T09:12:57.711Z,5.38
2023-05-24T09:15:43.911Z,5.45
2023-05-24T09:18:30.066Z,5.03
2023-05-24T09:21:16.127Z,4.82
2023-05-24T09:24:01.632Z,5.00
2023-05-24T09:26:50.992Z,4.32
2023-05-24T09:29:41.492Z,5.18
2023-05-24T09:32:28.729Z,5.40
2023-05-24T09:35:13.993Z,5.10
2023-05-24T09:38:00.163Z,5.80
2023-05-24T09:40:45.981Z,4.80
2023-05-24T09:43:46.656Z,5.53
2023-05-24T09:46:38.529Z,4.72
2023-05-24T09:49:24.379Z,5.53
2023-05-24T09:52:14.396Z,5.40
2023-05-24T09:55:00.904Z,4.40
2023-05-24T09:58:08.483Z,4.93
2023-05-24T10:01:08.041Z,4.38
2023-05-24T10:03:59.270Z,3.75
2023-05-24T10:06:48.057Z,5.25
2023-05-24T10:09:37.413Z,3.60
2023-05-24T10:12:25.691Z,4.28
2023-05-24T10:15:12.233Z,4.38
2023-05-24T10:17:58.426Z,5.00
2023-05-24T10:20:45.141Z,3.58
2023-05-24T10:23:32.578Z,4.25
2023-05-24T10:26:19.699Z,4.95
2023-05-24T10:29:11.342Z,5.32
2023-05-24T10:31:57.473Z,6.07
2023-05-24T10:34:44.757Z,3.85
2023-05-24T10:37:31.905Z,5.07
2023-05-24T10:40:22.890Z,3.95
2023-05-24T10:43:08.958Z,4.40
2023-05-24T10:45:54.590Z,4.20
2023-05-24T10:48:41.058Z,4.22
2023-05-24T10:51:38.871Z,4.60
2023-05-24T10:54:27.203Z,4.97
2023-05-24T10:57:13.252Z,5.18
2023-05-24T11:00:30.662Z,4.78
2023-05-24T11:03:24.874Z,4.63
2023-05-24T11:06:10.214Z,4.75
2023-05-24T11:09:00.908Z,5.22
2023-05-24T11:11:47.982Z,5.45
2023-05-24T11:14:42.459Z,4.57
2023-05-24T11:17:28.209Z,4.80
2023-05-24T11:20:13.723Z,4.40
2023-05-24T11:23:00.216Z,3.97
2023-05-24T11:25:47.504Z,3.97
2023-05-24T11:28:36.801Z,5.38
2023-05-24T11:31:27.942Z,3.55
2023-05-24T11:34:13.638Z,4.13
2023-05-24T11:37:00.479Z,4.20
2023-05-24T11:39:52.710Z,5.38
2023-05-24T11:42:39.305Z,4.85
2023-05-24T11:45:24.508Z,3.92
2023-05-24T11:48:11.407Z,4.03
2023-05-24T11:50:57.933Z,4.00
2023-05-24T11:53:45.921Z,4.07
2023-05-24T11:56:33.864Z,3.10
2023-05-24T11:59:25.697Z,3.50
2023-05-24T12:02:11.232Z,3.92
2023-05-24T12:05:11.553Z,3.90
2023-05-24T12:08:09.321Z,4.25
2023-05-24T12:10:56.427Z,3.42
2023-05-24T12:13:42.340Z,3.90
2023-05-24T12:16:32.113Z,4.13
2023-05-24T12:19:32.356Z,4.07
2023-05-24T12:22:19.260Z,4.03
2023-05-24T12:25:05.220Z,4.25
2023-05-24T12:27:56.109Z,4.00
2023-05-24T12:30:45.127Z,4.60
2023-05-24T12:33:30.965Z,4.60
2023-05-24T12:36:17.566Z,4.90
2023-05-24T12:39:23.345Z,4.10
2023-05-24T12:42:11.603Z,4.18
2023-05-24T12:44:57.686Z,4.38
2023-05-24T12:47:43.297Z,4.30
2023-05-24T12:50:29.480Z,4.28
2023-05-24T12:53:15.035Z,4.28
2023-05-24T12:56:00.757Z,4.82
2023-05-24T12:58:47.449Z,4.97
2023-05-24T13:01:32.940Z,5.28
2023-05-24T13:04:21.113Z,4.57
2023-05-24T13:07:06.611Z,4.35
2023-05-24T13:09:52.209Z,5.13
2023-05-24T13:12:37.763Z,5.25
2023-05-24T13:15:24.162Z,5.65
2023-05-24T13:18:10.030Z,5.35
2023-05-24T13:20:57.766Z,4.95
2023-05-24T13:23:44.473Z,4.70
2023-05-24T13:26:30.909Z,4.38
2023-05-24T13:32:05.862Z,4.78
2023-05-24T13:34:51.233Z,4.43
2023-05-24T13:37:36.826Z,5.30
2023-05-24T13:40:25.306Z,4.43
2023-05-24T13:43:11.052Z,4.28
2023-05-24T13:45:57.808Z,4.50
2023-05-24T13:48:43.491Z,3.55
2023-05-24T13:51:30.710Z,4.88
2023-05-24T13:54:16.589Z,4.28
2023-05-24T13:57:02.656Z,4.75
2023-05-24T13:59:48.125Z,4.50
2023-05-24T14:02:33.793Z,4.28
2023-05-24T14:08:08.810Z,4.70
2023-05-24T14:10:54.470Z,5.13
2023-05-24T14:16:30.512Z,4.57
2023-05-24T14:19:17.181Z,4.22
2023-05-24T14:22:02.892Z,4.15
2023-05-24T14:24:49.005Z,4.63
2023-05-24T14:27:34.751Z,4.32
2023-05-24T14:30:20.443Z,4.25
2023-05-24T14:33:08.233Z,5.35
2023-05-24T14:35:54.420Z,3.95
2023-05-24T14:38:40.325Z,4.20
2023-05-24T14:41:26.316Z,4.07
2023-05-24T14:44:11.952Z,3.88
2023-05-24T14:46:57.430Z,4.72
2023-05-24T14:49:42.917Z,4.72
2023-05-24T14:52:28.398Z,5.05
2023-05-24T14:55:14.672Z,4.50
2023-05-24T14:58:00.576Z,4.40
2023-05-24T15:00:46.234Z,4.97
2023-05-24T15:03:32.582Z,5.18
2023-05-24T15:06:18.453Z,4.50
2023-05-24T15:09:06.430Z,5.28
2023-05-24T15:11:51.576Z,5.18
2023-05-24T15:14:37.419Z,4.40
2023-05-24T15:17:23.237Z,5.22
2023-05-24T15:20:09.037Z,4.60
2023-05-24T15:22:54.916Z,5.15
2023-05-24T15:25:40.969Z,5.25
2023-05-24T15:28:27.210Z,5.45
2023-05-24T15:31:12.800Z,4.40
2023-05-24T15:33:58.314Z,4.65
2023-05-24T15:36:45.815Z,4.88
2023-05-24T15:39:31.506Z,4.90
2023-05-24T15:42:16.978Z,4.72
2023-05-24T15:45:03.064Z,4.72
2023-05-24T15:47:49.135Z,5.88
2023-05-24T15:50:53.994Z,4.65
2023-05-24T15:53:40.782Z,4.45
2023-05-24T15:56:27.138Z,4.97
2023-05-24T15:59:12.860Z,5.00
2023-05-24T16:01:58.576Z,4.90
2023-05-24T16:04:44.518Z,5.10
2023-05-24T16:07:30.043Z,4.53
2023-05-24T16:10:16.966Z,4.60
2023-05-24T16:13:03.066Z,4.47
2023-05-24T16:15:51.893Z,4.75
2023-05-24T16:18:38.233Z,5.13
2023-05-24T16:21:24.729Z,6.03
2023-05-24T16:24:12.356Z,4.68
2023-05-24T16:26:58.445Z,4.88
2023-05-24T16:29:45.724Z,5.03
2023-05-24T16:32:31.848Z,4.43
2023-05-24T16:35:17.499Z,5.53
2023-05-24T16:38:03.590Z,4.68
2023-05-24T16:40:49.818Z,5.40
2023-05-24T16:43:35.803Z,4.97
2023-05-24T16:46:21.530Z,4.50
2023-05-24T16:49:08.927Z,4.32
2023-05-24T16:51:54.770Z,4.90
2023-05-24T16:54:40.550Z,4.65
2023-05-24T16:57:28.404Z,4.47
2023-05-24T17:00:15.362Z,4.68
2023-05-24T17:03:01.610Z,4.93
2023-05-24T17:05:47.366Z,4.60
2023-05-24T17:08:36.874Z,4.30
2023-05-24T17:11:23.263Z,5.53
2023-05-24T17:14:09.532Z,4.72
2023-05-24T17:16:54.997Z,5.15
2023-05-24T17:19:40.729Z,4.93
2023-05-24T17:22:26.303Z,5.57
2023-05-24T17:25:11.819Z,4.28
2023-05-24T17:27:57.313Z,4.80
2023-05-24T17:30:43.073Z,4.68
2023-05-24T17:33:30.007Z,4.70
2023-05-24T17:36:15.833Z,5.20
2023-05-24T17:39:01.132Z,4.93
2023-05-24T17:41:46.746Z,5.00
2023-05-24T17:44:32.267Z,5.13
2023-05-24T17:47:17.737Z,4.60
2023-05-24T17:50:03.445Z,4.47
2023-05-24T17:52:49.020Z,4.43
2023-05-24T17:55:35.213Z,5.10
2023-05-24T17:58:20.635Z,4.05
2023-05-24T18:01:07.779Z,4.53
2023-05-24T18:03:53.143Z,4.40
2023-05-24T18:06:38.670Z,4.25
2023-05-24T18:09:24.158Z,4.75
2023-05-24T18:12:09.524Z,4.35
2023-05-24T18:14:55.396Z,4.35
2023-05-24T18:17:41.018Z,4.85
2023-05-24T18:20:26.573Z,5.38
2023-05-24T18:23:12.366Z,4.90
2023-05-24T18:26:01.465Z,4.72
2023-05-24T18:28:48.326Z,4.40
2023-05-24T18:31:33.690Z,5.10
2023-05-24T18:34:19.278Z,4.25
2023-05-24T18:37:05.274Z,4.35
2023-05-24T18:39:50.820Z,4.72
2023-05-24T18:42:36.492Z,4.32
2023-05-24T18:45:21.938Z,4.32
2023-05-24T18:48:07.942Z,4.80
2023-05-24T18:50:54.387Z,5.07
2023-05-24T18:53:40.546Z,5.20
2023-05-24T18:56:26.489Z,4.60
2023-05-24T18:59:12.718Z,5.22
2023-05-24T19:02:00.833Z,5.25
2023-05-24T19:04:48.356Z,5.05
2023-05-24T19:07:35.453Z,4.88
2023-05-24T19:10:21.315Z,5.40
2023-05-24T19:13:07.221Z,4.78
2023-05-24T19:15:53.664Z,5.82
2023-05-24T19:18:39.293Z,4.97
2023-05-24T19:21:24.862Z,5.05
2023-05-24T19:24:10.950Z,5.18
2023-05-24T19:26:56.760Z,5.93
2023-05-24T19:29:43.120Z,5.38
2023-05-24T19:32:28.505Z,5.40
2023-05-24T19:35:13.805Z,5.47
2023-05-24T19:37:59.471Z,5.38
2023-05-24T19:40:44.982Z,5.90
2023-05-24T19:43:30.598Z,5.55
2023-05-24T19:46:16.252Z,5.40
2023-05-24T19:49:01.708Z,5.38
2023-05-24T19:51:47.246Z,4.47
2023-05-24T19:54:32.929Z,5.93
2023-05-24T19:57:18.103Z,6.93
2023-05-24T20:00:05.080Z,5.57
2023-05-24T20:02:50.831Z,6.38
2023-05-24T20:05:36.330Z,5.85
2023-05-24T20:08:21.862Z,6.80
2023-05-24T20:11:07.433Z,6.82
2023-05-24T20:13:53.082Z,7.50
2023-05-24T20:16:38.694Z,7.05
2023-05-24T20:19:24.164Z,7.43
2023-05-24T20:22:09.670Z,9.65
2023-05-24T20:24:55.791Z,6.18
2023-05-24T20:27:42.354Z,7.65
2023-05-24T20:30:28.659Z,6.20
2023-05-24T20:33:14.620Z,7.00
2023-05-24T20:36:00.386Z,6.45
2023-05-24T20:38:45.817Z,7.82
2023-05-24T20:41:31.643Z,5.93
2023-05-24T20:44:16.990Z,6.47
2023-05-24T20:47:02.583Z,6.47
2023-05-24T20:49:48.099Z,6.30
2023-05-24T20:52:33.738Z,6.80
2023-05-24T20:55:19.625Z,5.80
2023-05-24T20:58:05.136Z,6.47
2023-05-24T21:00:50.658Z,6.00
2023-05-24T21:03:36.609Z,5.80
2023-05-24T21:06:22.831Z,5.63
2023-05-24T21:09:08.511Z,5.82
2023-05-24T21:11:54.258Z,7.07
2023-05-24T21:14:39.949Z,5.40
2023-05-24T21:17:25.704Z,6.25
2023-05-24T21:20:11.726Z,6.55
2023-05-24T21:22:57.629Z,7.13
2023-05-24T21:25:43.410Z,6.32
2023-05-24T21:28:29.169Z,6.45
2023-05-24T21:31:14.686Z,6.25
2023-05-24T21:34:00.609Z,7.07
2023-05-24T21:36:46.144Z,7.28
2023-05-24T21:39:32.956Z,6.32
2023-05-24T21:42:18.852Z,6.43
2023-05-24T21:45:05.151Z,6.55
2023-05-24T21:47:51.371Z,7.95
2023-05-24T21:50:37.131Z,8.18
2023-05-24T21:53:23.423Z,6.57
2023-05-24T21:56:09.271Z,8.23
2023-05-24T21:58:55.019Z,7.50
2023-05-24T22:01:40.902Z,7.72
2023-05-24T22:04:26.245Z,7.75
2023-05-24T22:07:11.836Z,8.73
2023-05-24T22:09:57.313Z,8.38
2023-05-24T22:12:42.794Z,9.30
2023-05-24T22:15:28.394Z,8.55
2023-05-24T22:18:17.511Z,8.30
2023-05-24T22:21:06.226Z,8.98
2023-05-24T22:23:51.904Z,7.88
2023-05-24T22:26:38.286Z,9.23
2023-05-24T22:29:24.046Z,8.30
2023-05-24T22:32:09.865Z,10.68
2023-05-24T22:34:55.353Z,9.00
2023-05-24T22:37:42.136Z,10.38
2023-05-24T22:40:27.491Z,9.65
2023-05-24T22:43:12.826Z,10.00
2023-05-24T22:45:58.759Z,10.60
2023-05-24T22:48:45.509Z,11.38
2023-05-24T22:51:34.764Z,11.25
2023-05-24T22:54:20.602Z,11.75
2023-05-24T22:57:06.904Z,11.88
2023-05-24T22:59:53.135Z,12.35
2023-05-24T23:02:39.361Z,12.57
2023-05-24T23:05:25.239Z,12.40
2023-05-24T23:08:13.617Z,13.57
2023-05-24T23:11:00.211Z,13.93
2023-05-24T23:13:45.675Z,13.60
2023-05-24T23:16:34.122Z,15.73
2023-05-24T23:19:27.530Z,15.40
2023-05-24T23:22:23.761Z,14.98
2023-05-24T23:25:25.875Z,15.30
2023-05-24T23:28:36.221Z,15.27
2023-05-24T23:31:32.985Z,13.60
2023-05-24T23:34:18.568Z,13.52
2023-05-24T23:37:07.772Z,14.45
2023-05-24T23:39:57.891Z,13.63
2023-05-24T23:42:46.942Z,12.98
2023-05-24T23:45:38.704Z,13.57
2023-05-24T23:48:28.076Z,12.30
2023-05-24T23:51:15.630Z,12.18
2023-05-24T23:54:01.617Z,12.00
2023-05-24T23:56:48.772Z,12.43
2023-05-24T23:59:45.434Z,13.57
